Ada, South Dakota
Current Conditions -  °F | °C
As of 10:53 PM on Tuesday 25 Nov 2014 (Local Time) from KHEI Reporting Station
Overcast Overcast  
Wind Chill:   Ceiling: 700
Heat Index: 21°   Visibility: 9mi
Dew Point: 17°   Wind: 17mph
Humidity: 85%   Direction: 350°N
Pressure: 30.1"   Gusts: 26mph
Location:  45.5161°N, 102.519°W
Report Text: KHEI 260553Z AUTO 35015G23KT 9SM OVC007 M06/M08 A3010 RMK AO2 SLP224 60000 T10611083 10011 21061 52061
Loading
Personal Weather Stations






























Interactive Weather Map New forecast layout! Learn more

10-Day Weather Forecast

Advertisements
Track Severe Weather on mobile